Time;durP1;ratioP1;P1;durP2;ratioP2;P2;SDS_P1;SDS_P2;PMS_P1;PMS_P2;Temp;Humidity;BMP_temperature;BMP_pressure;BME280_temperature;BME280_humidity;BME280_pressure;Samples;Min_cycle;Max_cycle;Signal;HPM_P1;HPM_P2
2021/10/11 00:01:06;;;;;;;29.70;18.77;;;;;;;;;;5052459;28;20451;-68
2021/10/11 00:03:32;;;;;;;27.93;19.60;;;;;;;;;;5052321;28;20412;-68
2021/10/11 00:05:58;;;;;;;25.43;17.90;;;;;;;;;;5052242;28;20405;-68
2021/10/11 00:08:24;;;;;;;22.90;16.20;;;;;;;;;;5052050;28;20425;-68
2021/10/11 00:10:54;;;;;;;24.10;17.17;;;;;;;;;;5054302;28;20891;-68
2021/10/11 00:13:21;;;;;;;25.47;17.57;;;;;;;;;;5055754;28;20445;-67
2021/10/11 00:15:47;;;;;;;22.13;16.40;;;;;;;;;;5055789;28;20421;-68
2021/10/11 00:18:13;;;;;;;25.80;17.00;;;;;;;;;;5046017;28;20816;-68
2021/10/11 00:20:39;;;;;;;26.13;18.10;;;;;;;;;;5035601;28;20413;-67
2021/10/11 00:23:06;;;;;;;23.83;17.87;;;;;;;;;;5049259;28;20460;-68
2021/10/11 00:25:32;;;;;;;25.03;17.80;;;;;;;;;;5055915;28;20471;-68
2021/10/11 00:27:58;;;;;;;24.60;16.97;;;;;;;;;;5035691;28;20418;-68
2021/10/11 00:30:24;;;;;;;24.80;17.00;;;;;;;;;;5035538;28;20510;-68
2021/10/11 00:32:50;;;;;;;27.47;17.87;;;;;;;;;;5035408;28;20446;-68
2021/10/11 00:35:16;;;;;;;24.67;18.20;;;;;;;;;;5034029;28;20422;-67
2021/10/11 00:37:42;;;;;;;25.60;16.77;;;;;;;;;;5035575;28;20482;-67
2021/10/11 00:40:08;;;;;;;28.33;18.10;;;;;;;;;;5036185;28;20798;-68
2021/10/11 00:42:35;;;;;;;22.93;17.70;;;;;;;;;;5035612;28;20420;-68
2021/10/11 00:45:01;;;;;;;27.00;18.67;;;;;;;;;;5035564;28;20486;-69
2021/10/11 00:47:27;;;;;;;24.40;17.60;;;;;;;;;;5035602;28;20398;-67
2021/10/11 00:49:53;;;;;;;28.13;19.33;;;;;;;;;;5033738;28;20429;-66
2021/10/11 00:52:19;;;;;;;24.90;18.17;;;;;;;;;;5034818;28;20450;-66
2021/10/11 00:54:45;;;;;;;23.57;17.23;;;;;;;;;;5035137;28;20435;-69
2021/10/11 00:57:11;;;;;;;25.13;18.03;;;;;;;;;;5035280;28;20403;-66
2021/10/11 00:59:38;;;;;;;24.60;17.37;;;;;;;;;;5034799;28;20445;-66
2021/10/11 01:02:04;;;;;;;29.97;18.83;;;;;;;;;;5035393;28;20501;-66
2021/10/11 01:04:31;;;;;;;24.93;17.17;;;;;;;;;;5033602;28;20469;-67
2021/10/11 01:06:57;;;;;;;25.97;17.87;;;;;;;;;;5035329;28;20446;-66
2021/10/11 01:09:23;;;;;;;22.47;16.67;;;;;;;;;;5033903;28;20438;-66
2021/10/11 01:11:50;;;;;;;26.90;17.97;;;;;;;;;;5034823;28;20509;-67
2021/10/11 01:14:16;;;;;;;28.60;16.20;;;;;;;;;;5035043;28;20406;-66
2021/10/11 01:16:43;;;;;;;25.63;15.63;;;;;;;;;;5042152;28;20457;-66
2021/10/11 01:19:09;;;;;;;25.67;16.83;;;;;;;;;;5037535;28;20488;-66
2021/10/11 01:21:35;;;;;;;25.80;16.87;;;;;;;;;;5034363;28;20403;-66
2021/10/11 01:24:01;;;;;;;27.47;17.67;;;;;;;;;;5034903;28;20417;-66
2021/10/11 01:26:46;;;;;;;26.93;16.03;;;;;;;;;;5033345;28;20406;-66
2021/10/11 01:29:13;;;;;;;26.90;17.57;;;;;;;;;;5034710;28;20552;-66
2021/10/11 01:31:39;;;;;;;24.87;17.93;;;;;;;;;;5034832;28;20535;-66
2021/10/11 01:34:06;;;;;;;23.97;16.63;;;;;;;;;;5034054;28;20409;-66
2021/10/11 01:36:32;;;;;;;26.63;17.27;;;;;;;;;;5034237;28;20790;-66
2021/10/11 01:39:00;;;;;;;23.73;15.57;;;;;;;;;;5034440;28;20429;-66
2021/10/11 01:41:26;;;;;;;27.67;17.10;;;;;;;;;;5034138;28;20817;-67
2021/10/11 01:43:52;;;;;;;23.67;15.30;;;;;;;;;;5034150;28;20407;-67
2021/10/11 01:46:18;;;;;;;20.33;14.47;;;;;;;;;;5034184;28;20399;-66
2021/10/11 01:48:45;;;;;;;21.80;14.67;;;;;;;;;;5034155;28;20505;-66
2021/10/11 01:51:11;;;;;;;22.57;14.43;;;;;;;;;;5033778;28;20457;-67
2021/10/11 01:53:37;;;;;;;21.30;14.00;;;;;;;;;;5033977;28;20395;-66
2021/10/11 01:56:04;;;;;;;21.73;14.53;;;;;;;;;;5038674;28;20426;-66
2021/10/11 01:58:30;;;;;;;19.37;13.87;;;;;;;;;;5047150;28;20446;-66
2021/10/11 02:00:57;;;;;;;18.70;13.40;;;;;;;;;;5033585;28;20501;-66
2021/10/11 02:03:23;;;;;;;20.80;14.40;;;;;;;;;;5033801;28;20407;-67
2021/10/11 02:05:49;;;;;;;20.90;14.33;;;;;;;;;;5033689;28;20456;-67
2021/10/11 02:10:45;;;;;;;18.73;13.07;;;;;;;;;;5052534;28;20533;-65
2021/10/11 02:13:11;;;;;;;20.90;13.73;;;;;;;;;;5053554;28;20461;-65
2021/10/11 02:15:37;;;;;;;18.17;13.80;;;;;;;;;;5053610;28;20559;-65
2021/10/11 02:18:03;;;;;;;18.47;13.53;;;;;;;;;;5053505;28;20402;-65
2021/10/11 02:20:30;;;;;;;21.50;13.60;;;;;;;;;;5053416;28;20433;-65
2021/10/11 02:22:56;;;;;;;15.80;12.00;;;;;;;;;;5052168;28;20933;-65
2021/10/11 02:25:22;;;;;;;19.10;12.67;;;;;;;;;;5053175;28;20497;-65
2021/10/11 02:27:48;;;;;;;17.97;12.70;;;;;;;;;;5053102;28;20471;-65
2021/10/11 02:30:14;;;;;;;20.17;12.87;;;;;;;;;;5053189;28;20432;-65
2021/10/11 02:32:41;;;;;;;17.77;12.40;;;;;;;;;;5052846;28;20484;-65
2021/10/11 02:35:08;;;;;;;15.43;12.27;;;;;;;;;;5053451;28;20405;-65
2021/10/11 02:37:34;;;;;;;18.37;12.83;;;;;;;;;;5053222;28;20769;-65
2021/10/11 02:40:00;;;;;;;15.53;11.97;;;;;;;;;;5053107;28;20440;-65
2021/10/11 02:42:26;;;;;;;18.00;12.63;;;;;;;;;;5053082;28;20409;-65
2021/10/11 02:44:52;;;;;;;15.90;11.90;;;;;;;;;;5053172;28;20489;-65
2021/10/11 02:47:18;;;;;;;14.47;11.00;;;;;;;;;;5053081;28;20768;-65
2021/10/11 02:49:44;;;;;;;17.23;12.20;;;;;;;;;;5053013;28;20448;-65
2021/10/11 02:52:10;;;;;;;15.50;11.53;;;;;;;;;;5052773;28;20934;-66
2021/10/11 02:54:36;;;;;;;17.90;12.30;;;;;;;;;;5052846;28;20893;-66
2021/10/11 02:57:02;;;;;;;17.30;12.37;;;;;;;;;;5052843;28;20408;-65
2021/10/11 02:59:28;;;;;;;16.10;11.57;;;;;;;;;;5052821;28;20425;-66
2021/10/11 03:01:54;;;;;;;16.83;10.63;;;;;;;;;;5052831;28;20440;-66
2021/10/11 03:04:20;;;;;;;17.50;12.60;;;;;;;;;;5034993;28;20418;-66
2021/10/11 03:06:46;;;;;;;14.50;11.60;;;;;;;;;;5052750;28;20410;-66
2021/10/11 03:09:12;;;;;;;17.23;12.00;;;;;;;;;;5052731;28;20960;-66
2021/10/11 03:11:38;;;;;;;19.20;11.23;;;;;;;;;;5052733;28;20557;-66
2021/10/11 03:14:05;;;;;;;17.00;11.43;;;;;;;;;;5052856;28;20409;-66
2021/10/11 03:16:32;;;;;;;16.90;11.77;;;;;;;;;;5052888;28;20430;-66
2021/10/11 03:18:58;;;;;;;16.97;10.90;;;;;;;;;;5052711;28;20418;-66
2021/10/11 03:21:24;;;;;;;16.20;12.27;;;;;;;;;;5052690;28;20394;-66
2021/10/11 03:23:51;;;;;;;16.20;11.50;;;;;;;;;;5052835;28;20432;-66
2021/10/11 03:26:20;;;;;;;15.07;11.33;;;;;;;;;;5051572;28;20430;-66
2021/10/11 03:28:46;;;;;;;14.70;11.10;;;;;;;;;;5052693;28;20535;-66
2021/10/11 03:31:12;;;;;;;14.97;11.50;;;;;;;;;;5052514;28;20516;-66
2021/10/11 03:33:39;;;;;;;14.90;11.63;;;;;;;;;;5051498;28;20494;-65
2021/10/11 03:36:05;;;;;;;14.87;12.00;;;;;;;;;;5052536;28;20409;-66
2021/10/11 03:38:31;;;;;;;15.23;10.60;;;;;;;;;;5052444;28;20476;-66
2021/10/11 03:40:57;;;;;;;13.90;10.50;;;;;;;;;;5052499;28;20394;-66
2021/10/11 03:43:23;;;;;;;17.83;12.07;;;;;;;;;;5052766;28;20402;-66
2021/10/11 03:45:50;;;;;;;14.47;11.20;;;;;;;;;;5054880;28;20401;-66
2021/10/11 03:48:16;;;;;;;16.63;11.73;;;;;;;;;;5056268;28;20447;-66
2021/10/11 03:50:45;;;;;;;14.33;11.10;;;;;;;;;;5056416;28;20398;-66
2021/10/11 03:53:12;;;;;;;16.87;12.10;;;;;;;;;;5056116;28;20850;-66
2021/10/11 03:55:38;;;;;;;15.07;11.10;;;;;;;;;;5056195;28;20394;-65
2021/10/11 03:58:04;;;;;;;15.17;11.27;;;;;;;;;;5056135;28;20397;-66
2021/10/11 04:00:30;;;;;;;18.00;11.73;;;;;;;;;;5056157;28;20467;-66
2021/10/11 04:02:57;;;;;;;17.60;11.93;;;;;;;;;;5056518;28;20405;-66
2021/10/11 04:05:23;;;;;;;18.87;12.80;;;;;;;;;;5056531;28;20446;-66
2021/10/11 04:07:52;;;;;;;18.90;11.60;;;;;;;;;;5056686;28;20809;-66
2021/10/11 04:10:25;;;;;;;17.10;11.33;;;;;;;;;;5056030;28;20438;-66
2021/10/11 04:12:55;;;;;;;16.50;10.90;;;;;;;;;;5055867;28;20449;-66
2021/10/11 04:15:21;;;;;;;13.50;10.77;;;;;;;;;;5054808;28;20870;-67
2021/10/11 04:17:48;;;;;;;14.73;10.90;;;;;;;;;;5055558;28;20410;-67
2021/10/11 04:20:14;;;;;;;15.30;11.00;;;;;;;;;;5054278;28;20944;-67
2021/10/11 04:22:40;;;;;;;12.00;9.73;;;;;;;;;;5055763;28;20481;-67
2021/10/11 04:25:07;;;;;;;13.37;9.73;;;;;;;;;;5055707;28;20401;-67
2021/10/11 04:27:33;;;;;;;14.57;10.60;;;;;;;;;;5055756;28;20811;-67
2021/10/11 04:29:59;;;;;;;13.40;10.80;;;;;;;;;;5055546;28;20451;-67
2021/10/11 04:32:25;;;;;;;13.00;9.87;;;;;;;;;;5055547;28;20564;-67
2021/10/11 04:34:51;;;;;;;12.63;9.13;;;;;;;;;;5055433;28;20394;-66
2021/10/11 04:37:17;;;;;;;16.13;11.27;;;;;;;;;;5055458;28;20397;-67
2021/10/11 04:39:44;;;;;;;16.43;11.23;;;;;;;;;;5055580;28;20421;-67
2021/10/11 04:42:10;;;;;;;13.17;9.40;;;;;;;;;;5055654;28;20459;-67
2021/10/11 04:44:36;;;;;;;14.10;9.87;;;;;;;;;;5055516;28;20933;-67
2021/10/11 04:47:02;;;;;;;15.10;10.50;;;;;;;;;;5055408;28;20893;-67
2021/10/11 04:49:28;;;;;;;14.37;9.90;;;;;;;;;;5055289;28;20567;-67
2021/10/11 04:51:54;;;;;;;12.33;9.50;;;;;;;;;;5055191;28;20999;-66
2021/10/11 04:54:20;;;;;;;15.00;10.43;;;;;;;;;;5054904;28;20925;-67
2021/10/11 04:56:46;;;;;;;12.23;10.03;;;;;;;;;;5054888;28;20836;-67
2021/10/11 04:59:12;;;;;;;13.53;10.77;;;;;;;;;;5054952;28;20426;-67
2021/10/11 05:01:38;;;;;;;14.23;10.50;;;;;;;;;;5054842;28;20440;-66
2021/10/11 05:04:05;;;;;;;16.77;10.17;;;;;;;;;;5055121;28;20753;-66
2021/10/11 05:06:31;;;;;;;14.73;10.50;;;;;;;;;;5054870;28;20482;-67
2021/10/11 05:09:00;;;;;;;15.00;10.77;;;;;;;;;;5054798;28;20454;-67
2021/10/11 05:11:26;;;;;;;13.43;9.87;;;;;;;;;;5054831;28;20758;-67
2021/10/11 05:13:52;;;;;;;14.73;10.00;;;;;;;;;;5054681;28;20404;-67
2021/10/11 05:16:18;;;;;;;11.90;10.23;;;;;;;;;;5054520;28;20434;-67
2021/10/11 05:18:45;;;;;;;12.30;9.57;;;;;;;;;;5054728;28;20414;-67
2021/10/11 05:21:11;;;;;;;14.37;10.00;;;;;;;;;;5054740;28;20770;-67
2021/10/11 05:23:37;;;;;;;12.70;9.93;;;;;;;;;;5054583;28;20398;-67
2021/10/11 05:26:03;;;;;;;17.80;11.40;;;;;;;;;;5054750;28;20413;-67
2021/10/11 05:28:29;;;;;;;13.20;9.67;;;;;;;;;;5054375;28;20545;-67
2021/10/11 05:30:55;;;;;;;14.27;10.30;;;;;;;;;;5054322;28;20909;-67
2021/10/11 05:33:22;;;;;;;12.97;10.00;;;;;;;;;;5054548;28;20450;-67
2021/10/11 05:35:50;;;;;;;14.03;10.50;;;;;;;;;;5054544;28;20418;-67
2021/10/11 05:38:16;;;;;;;14.63;9.33;;;;;;;;;;5054703;28;20402;-67
2021/10/11 05:40:42;;;;;;;13.10;9.50;;;;;;;;;;5054553;28;20398;-67
2021/10/11 05:43:08;;;;;;;14.80;9.80;;;;;;;;;;5054190;28;20398;-67
2021/10/11 05:45:34;;;;;;;12.57;9.07;;;;;;;;;;5054361;28;20405;-67
2021/10/11 05:48:00;;;;;;;13.80;8.93;;;;;;;;;;5054301;28;20429;-67
2021/10/11 05:50:26;;;;;;;10.80;8.50;;;;;;;;;;5054016;28;20426;-67
2021/10/11 05:52:52;;;;;;;11.77;8.17;;;;;;;;;;5053794;28;20844;-67
2021/10/11 05:55:18;;;;;;;13.03;9.07;;;;;;;;;;5053959;28;20915;-67
2021/10/11 05:57:44;;;;;;;13.17;9.20;;;;;;;;;;5053924;28;20406;-67
2021/10/11 06:00:11;;;;;;;13.70;8.40;;;;;;;;;;5053678;28;20449;-67
2021/10/11 06:02:37;;;;;;;15.80;9.30;;;;;;;;;;5053945;28;20890;-67
2021/10/11 06:05:03;;;;;;;11.27;8.73;;;;;;;;;;5053957;28;20846;-67
2021/10/11 06:07:29;;;;;;;10.60;8.30;;;;;;;;;;5053407;28;20524;-67
2021/10/11 06:09:56;;;;;;;13.47;8.83;;;;;;;;;;5053529;28;20502;-67
2021/10/11 06:12:22;;;;;;;14.70;9.03;;;;;;;;;;5053478;28;20893;-67
2021/10/11 06:14:48;;;;;;;10.47;8.73;;;;;;;;;;5053538;28;20401;-67
2021/10/11 06:17:14;;;;;;;12.33;8.80;;;;;;;;;;5053379;28;20901;-67
2021/10/11 06:19:40;;;;;;;10.50;8.53;;;;;;;;;;5053370;28;20468;-67
2021/10/11 06:22:06;;;;;;;12.27;8.37;;;;;;;;;;5053425;28;20405;-67
2021/10/11 06:24:32;;;;;;;12.60;8.70;;;;;;;;;;5053550;28;20417;-67
2021/10/11 06:26:59;;;;;;;14.13;8.63;;;;;;;;;;5053569;28;20489;-67
2021/10/11 06:29:25;;;;;;;10.80;7.80;;;;;;;;;;5053109;28;20425;-67
2021/10/11 06:31:51;;;;;;;9.87;6.97;;;;;;;;;;5052990;28;20545;-67
2021/10/11 06:34:17;;;;;;;11.20;8.67;;;;;;;;;;5053204;28;20408;-67
2021/10/11 06:36:43;;;;;;;13.37;8.33;;;;;;;;;;5053131;28;20398;-67
2021/10/11 06:39:09;;;;;;;11.97;8.43;;;;;;;;;;5053076;28;20766;-67
2021/10/11 06:41:35;;;;;;;9.93;7.70;;;;;;;;;;5053334;28;20398;-67
2021/10/11 06:44:02;;;;;;;14.43;7.73;;;;;;;;;;5053289;28;20406;-67
2021/10/11 06:46:28;;;;;;;15.80;7.20;;;;;;;;;;5052987;28;20451;-67
2021/10/11 06:48:54;;;;;;;11.60;7.80;;;;;;;;;;5052827;28;20430;-67
2021/10/11 06:51:20;;;;;;;10.60;7.97;;;;;;;;;;5052814;28;20489;-67
2021/10/11 06:53:46;;;;;;;9.90;7.90;;;;;;;;;;5053351;28;20925;-67
2021/10/11 06:56:12;;;;;;;10.17;6.97;;;;;;;;;;5058489;28;20422;-67
2021/10/11 06:58:38;;;;;;;12.00;8.00;;;;;;;;;;5054066;28;20464;-65
2021/10/11 07:01:04;;;;;;;10.83;8.50;;;;;;;;;;5052049;28;20425;-65
2021/10/11 07:03:30;;;;;;;10.90;7.43;;;;;;;;;;5051048;28;20501;-65
2021/10/11 07:06:02;;;;;;;11.87;8.10;;;;;;;;;;5050240;28;20558;-66
2021/10/11 07:08:28;;;;;;;11.67;8.00;;;;;;;;;;5050281;28;20496;-67
2021/10/11 07:10:54;;;;;;;10.67;7.90;;;;;;;;;;5039596;28;20749;-65
2021/10/11 07:13:21;;;;;;;17.53;8.07;;;;;;;;;;5029434;28;20457;-64
2021/10/11 07:15:47;;;;;;;9.93;7.70;;;;;;;;;;5049659;28;20444;-66
2021/10/11 07:18:13;;;;;;;8.00;6.17;;;;;;;;;;5049036;28;20421;-65
2021/10/11 07:20:43;;;;;;;11.13;6.90;;;;;;;;;;5053765;28;20422;-65
2021/10/11 07:23:09;;;;;;;9.37;6.70;;;;;;;;;;5055146;28;20786;-65
2021/10/11 07:25:35;;;;;;;9.33;7.47;;;;;;;;;;5051505;28;20932;-65
2021/10/11 07:28:02;;;;;;;9.40;8.03;;;;;;;;;;5053602;28;20417;-64
2021/10/11 07:30:29;;;;;;;13.53;8.03;;;;;;;;;;5052280;28;20449;-64
2021/10/11 07:32:55;;;;;;;9.67;6.87;;;;;;;;;;5046797;28;20449;-66
2021/10/11 07:35:21;;;;;;;11.03;7.80;;;;;;;;;;5052946;28;20500;-67
2021/10/11 07:37:48;;;;;;;12.17;8.20;;;;;;;;;;5053662;28;20414;-67
2021/10/11 07:40:14;;;;;;;10.10;7.43;;;;;;;;;;5055057;28;20448;-68
2021/10/11 07:42:40;;;;;;;12.10;8.50;;;;;;;;;;5053961;28;20505;-65
2021/10/11 07:45:07;;;;;;;12.20;8.70;;;;;;;;;;5051803;28;20171;-68
2021/10/11 07:47:33;;;;;;;12.40;8.73;;;;;;;;;;5053557;28;20940;-67
2021/10/11 07:49:59;;;;;;;10.70;7.30;;;;;;;;;;5050244;28;20937;-67
2021/10/11 07:52:25;;;;;;;14.33;8.23;;;;;;;;;;5048094;28;20469;-66
2021/10/11 07:54:51;;;;;;;12.13;9.10;;;;;;;;;;5053107;28;20410;-67
2021/10/11 07:57:17;;;;;;;11.83;9.10;;;;;;;;;;5054206;28;20472;-65
2021/10/11 07:59:43;;;;;;;15.57;9.50;;;;;;;;;;5053039;28;20442;-65
2021/10/11 08:02:09;;;;;;;10.53;7.33;;;;;;;;;;5040486;28;20474;-65
2021/10/11 08:04:35;;;;;;;9.27;8.10;;;;;;;;;;5053377;28;20417;-66
2021/10/11 08:07:01;;;;;;;11.50;8.20;;;;;;;;;;5053780;28;20460;-64
2021/10/11 08:09:27;;;;;;;11.40;7.65;;;;;;;;;;5050022;28;20839;-63
2021/10/11 08:11:53;;;;;;;10.80;9.13;;;;;;;;;;5052869;28;20199;-63
2021/10/11 08:14:19;;;;;;;12.27;8.10;;;;;;;;;;5053675;28;21009;-64
2021/10/11 08:16:46;;;;;;;9.73;7.70;;;;;;;;;;5053651;28;20917;-68
2021/10/11 08:19:12;;;;;;;10.07;7.87;;;;;;;;;;5051213;28;20453;-65
2021/10/11 08:21:38;;;;;;;13.20;9.53;;;;;;;;;;5044508;28;20988;-65
2021/10/11 08:24:05;;;;;;;11.30;7.70;;;;;;;;;;5058700;28;20921;-66
2021/10/11 08:26:32;;;;;;;11.23;7.87;;;;;;;;;;5051039;28;20918;-65
2021/10/11 08:29:00;;;;;;;11.20;8.30;;;;;;;;;;5052891;28;20826;-65
2021/10/11 08:31:26;;;;;;;12.87;8.50;;;;;;;;;;5052131;28;20413;-65
2021/10/11 08:33:52;;;;;;;12.30;8.47;;;;;;;;;;5055765;28;20983;-65
2021/10/11 08:36:18;;;;;;;11.87;8.67;;;;;;;;;;5052085;28;20467;-65
2021/10/11 08:38:44;;;;;;;11.03;7.83;;;;;;;;;;5053518;28;20939;-64
2021/10/11 08:41:11;;;;;;;11.00;8.50;;;;;;;;;;5052028;28;20416;-65
2021/10/11 08:43:37;;;;;;;16.77;9.90;;;;;;;;;;5052894;28;20175;-65
2021/10/11 08:46:04;;;;;;;12.90;11.47;;;;;;;;;;5052040;28;20487;-64
2021/10/11 08:48:32;;;;;;;12.07;9.67;;;;;;;;;;5052153;28;20424;-65
2021/10/11 08:50:58;;;;;;;13.53;9.97;;;;;;;;;;5052429;28;20797;-65
2021/10/11 08:53:24;;;;;;;14.63;9.60;;;;;;;;;;5052001;28;20439;-66
2021/10/11 08:55:50;;;;;;;14.63;10.87;;;;;;;;;;5051069;28;20172;-65
2021/10/11 08:58:16;;;;;;;14.47;10.83;;;;;;;;;;5050678;28;20410;-66
2021/10/11 09:00:42;;;;;;;15.15;11.68;;;;;;;;;;5050643;28;20411;-65
2021/10/11 09:03:09;;;;;;;13.03;10.03;;;;;;;;;;5049915;28;20545;-65
2021/10/11 09:05:40;;;;;;;16.13;11.30;;;;;;;;;;5051843;28;20412;-65
2021/10/11 09:08:11;;;;;;;14.77;10.30;;;;;;;;;;5052799;28;20452;-65
2021/10/11 09:10:55;;;;;;;15.90;12.13;;;;;;;;;;5050273;28;20416;-66
2021/10/11 09:13:23;;;;;;;13.17;11.20;;;;;;;;;;5051666;28;21031;-68
2021/10/11 09:16:02;;;;;;;15.00;11.20;;;;;;;;;;5052379;28;20420;-67
2021/10/11 09:18:29;;;;;;;13.87;10.80;;;;;;;;;;5050913;28;20429;-64
2021/10/11 09:20:55;;;;;;;15.10;10.50;;;;;;;;;;5052334;28;20413;-67
2021/10/11 09:23:23;;;;;;;17.83;12.43;;;;;;;;;;5031370;28;20927;-66
2021/10/11 09:25:49;;;;;;;16.47;11.37;;;;;;;;;;5047473;28;20425;-67
2021/10/11 09:28:18;;;;;;;14.57;11.10;;;;;;;;;;5049277;28;20416;-66
2021/10/11 09:30:48;;;;;;;18.47;12.00;;;;;;;;;;5050894;28;20233;-65
2021/10/11 09:33:18;;;;;;;16.57;10.83;;;;;;;;;;5049833;28;20477;-66
2021/10/11 09:35:45;;;;;;;14.53;11.20;;;;;;;;;;5051911;28;20413;-67
2021/10/11 09:38:19;;;;;;;17.77;11.40;;;;;;;;;;5052700;28;20508;-68
2021/10/11 09:40:45;;;;;;;14.40;11.77;;;;;;;;;;5051597;28;20746;-66
2021/10/11 09:43:12;;;;;;;17.30;12.00;;;;;;;;;;5032925;28;20509;-66
2021/10/11 09:45:38;;;;;;;22.10;11.70;;;;;;;;;;5049539;28;20444;-67
2021/10/11 09:48:06;;;;;;;17.40;12.00;;;;;;;;;;5052681;28;20520;-66
2021/10/11 09:50:32;;;;;;;15.43;12.00;;;;;;;;;;5049587;28;20441;-67
2021/10/11 09:52:59;;;;;;;21.43;11.43;;;;;;;;;;5050299;28;20548;-67
2021/10/11 09:55:25;;;;;;;15.93;10.87;;;;;;;;;;5049373;28;20829;-67
2021/10/11 09:57:52;;;;;;;13.63;10.43;;;;;;;;;;5052116;28;20414;-66
2021/10/11 10:00:18;;;;;;;18.07;12.10;;;;;;;;;;5048303;28;20457;-66
2021/10/11 10:02:47;;;;;;;12.37;9.87;;;;;;;;;;5049809;28;20436;-67
2021/10/11 10:05:18;;;;;;;13.53;10.23;;;;;;;;;;5030685;28;20429;-67
2021/10/11 10:07:47;;;;;;;14.40;10.53;;;;;;;;;;5041682;28;20453;-67
2021/10/11 10:10:13;;;;;;;15.23;10.87;;;;;;;;;;5050103;28;20461;-67
2021/10/11 10:12:46;;;;;;;15.87;10.67;;;;;;;;;;5050780;28;20468;-67
2021/10/11 10:15:12;;;;;;;14.87;11.07;;;;;;;;;;5051570;28;21016;-66
2021/10/11 10:17:38;;;;;;;16.00;11.47;;;;;;;;;;5050780;28;22257;-66
2021/10/11 10:20:08;;;;;;;16.07;11.03;;;;;;;;;;5051328;28;20444;-65
2021/10/11 10:22:35;;;;;;;14.10;9.73;;;;;;;;;;5045181;28;20451;-70
2021/10/11 10:25:07;;;;;;;14.80;10.90;;;;;;;;;;5048667;28;20471;-67
2021/10/11 10:27:36;;;;;;;13.00;8.93;;;;;;;;;;5052009;28;20823;-68
2021/10/11 10:30:13;;;;;;;14.60;10.93;;;;;;;;;;5032055;28;20456;-69
2021/10/11 10:32:39;;;;;;;17.63;10.20;;;;;;;;;;5050782;28;21217;-67
2021/10/11 10:35:06;;;;;;;10.77;9.40;;;;;;;;;;5050440;28;20509;-67
2021/10/11 10:37:35;;;;;;;19.73;9.70;;;;;;;;;;5052099;28;20414;-65
2021/10/11 10:40:11;;;;;;;14.07;11.17;;;;;;;;;;5043689;28;20548;-66
2021/10/11 10:42:37;;;;;;;19.93;9.80;;;;;;;;;;5050017;28;20417;-65
2021/10/11 10:45:06;;;;;;;13.07;10.00;;;;;;;;;;5049145;28;20414;-67
2021/10/11 10:47:36;;;;;;;14.83;10.10;;;;;;;;;;5048966;28;20437;-67
2021/10/11 10:50:03;;;;;;;11.37;9.13;;;;;;;;;;5047877;28;20433;-67
2021/10/11 10:52:29;;;;;;;14.50;10.43;;;;;;;;;;5050303;28;20437;-67
2021/10/11 10:54:59;;;;;;;17.43;9.90;;;;;;;;;;5050510;28;20420;-66
2021/10/11 10:57:27;;;;;;;14.73;9.87;;;;;;;;;;5052313;28;20443;-66
2021/10/11 10:59:57;;;;;;;11.60;7.90;;;;;;;;;;5048774;28;20516;-66
2021/10/11 11:02:24;;;;;;;11.37;8.37;;;;;;;;;;5045930;28;20418;-66
2021/10/11 11:05:00;;;;;;;12.53;8.30;;;;;;;;;;5049028;28;20420;-69
2021/10/11 11:07:28;;;;;;;10.57;8.43;;;;;;;;;;5051303;28;20428;-67
2021/10/11 11:09:54;;;;;;;13.37;8.07;;;;;;;;;;5050301;28;20537;-66
2021/10/11 11:12:37;;;;;;;14.67;9.10;;;;;;;;;;5052351;28;20475;-66
2021/10/11 11:15:04;;;;;;;15.37;10.00;;;;;;;;;;5046700;28;20409;-67
2021/10/11 11:17:32;;;;;;;12.17;8.87;;;;;;;;;;5053454;28;20420;-67
2021/10/11 11:19:58;;;;;;;13.07;9.80;;;;;;;;;;5050879;28;20491;-67
2021/10/11 11:22:28;;;;;;;15.50;9.73;;;;;;;;;;5052887;28;20411;-66
2021/10/11 11:25:00;;;;;;;11.63;8.37;;;;;;;;;;5051722;28;20405;-67
2021/10/11 11:27:33;;;;;;;10.90;8.57;;;;;;;;;;5050827;28;20410;-67
2021/10/11 11:30:01;;;;;;;10.23;8.30;;;;;;;;;;5056235;28;20437;-67
2021/10/11 11:32:27;;;;;;;11.87;7.80;;;;;;;;;;5051460;28;20534;-67
2021/10/11 11:34:53;;;;;;;11.10;7.07;;;;;;;;;;5058368;28;20421;-67
2021/10/11 11:37:19;;;;;;;8.57;6.97;;;;;;;;;;5052677;28;20500;-67
2021/10/11 11:39:45;;;;;;;13.00;7.83;;;;;;;;;;5051256;28;20820;-66
2021/10/11 11:42:11;;;;;;;9.17;7.40;;;;;;;;;;5055968;28;20420;-67
2021/10/11 11:44:38;;;;;;;16.27;6.80;;;;;;;;;;5056089;28;20432;-66
2021/10/11 11:47:06;;;;;;;13.17;7.87;;;;;;;;;;5055069;28;20487;-67
2021/10/11 11:49:35;;;;;;;18.90;9.03;;;;;;;;;;5041342;28;20448;-67
2021/10/11 11:52:04;;;;;;;8.70;7.03;;;;;;;;;;5053034;28;20449;-67
2021/10/11 11:54:30;;;;;;;11.93;7.37;;;;;;;;;;5049672;28;20413;-67
2021/10/11 11:56:56;;;;;;;8.53;6.37;;;;;;;;;;5051065;28;20405;-66
2021/10/11 11:59:22;;;;;;;10.53;6.47;;;;;;;;;;5036401;28;20471;-66
2021/10/11 12:01:48;;;;;;;10.07;6.37;;;;;;;;;;5049238;28;20440;-66
2021/10/11 12:04:15;;;;;;;7.60;5.73;;;;;;;;;;5032295;28;20414;-66
2021/10/11 12:06:43;;;;;;;11.70;6.90;;;;;;;;;;5051846;28;20820;-66
2021/10/11 12:09:10;;;;;;;9.07;7.03;;;;;;;;;;5053632;28;20877;-66
2021/10/11 12:11:37;;;;;;;12.17;7.97;;;;;;;;;;5052782;28;20440;-66
2021/10/11 12:14:03;;;;;;;8.50;6.13;;;;;;;;;;5053449;28;20479;-66
2021/10/11 12:16:30;;;;;;;10.20;6.23;;;;;;;;;;5052542;28;20412;-66
2021/10/11 12:18:57;;;;;;;9.90;6.67;;;;;;;;;;5054475;28;20429;-66
2021/10/11 12:21:25;;;;;;;7.50;6.53;;;;;;;;;;5053063;28;20409;-66
2021/10/11 12:23:52;;;;;;;10.40;7.13;;;;;;;;;;5052640;28;20421;-66
2021/10/11 12:26:19;;;;;;;15.33;6.40;;;;;;;;;;5053182;28;20445;-66
2021/10/11 12:28:49;;;;;;;10.70;6.80;;;;;;;;;;5052931;28;20430;-66
2021/10/11 12:31:19;;;;;;;11.50;7.20;;;;;;;;;;5051740;28;20417;-65
2021/10/11 12:33:45;;;;;;;8.93;6.20;;;;;;;;;;5053197;28;20955;-65
2021/10/11 12:36:12;;;;;;;7.63;5.70;;;;;;;;;;5052090;28;20417;-67
2021/10/11 12:38:40;;;;;;;11.73;5.80;;;;;;;;;;5052703;28;20432;-66
2021/10/11 12:41:07;;;;;;;7.70;6.30;;;;;;;;;;5052387;28;20479;-67
2021/10/11 12:43:34;;;;;;;6.50;4.80;;;;;;;;;;5053018;28;20456;-67
2021/10/11 12:46:09;;;;;;;6.33;4.80;;;;;;;;;;5051887;28;20410;-67
2021/10/11 12:48:36;;;;;;;7.60;5.30;;;;;;;;;;5052339;28;20470;-65
2021/10/11 12:51:04;;;;;;;7.00;4.33;;;;;;;;;;5035660;28;20417;-65
2021/10/11 12:53:31;;;;;;;6.37;5.03;;;;;;;;;;5049836;28;20530;-66
2021/10/11 12:55:57;;;;;;;13.07;6.70;;;;;;;;;;5052397;28;20424;-67
2021/10/11 12:58:27;;;;;;;9.00;5.97;;;;;;;;;;5052982;28;20409;-65
2021/10/11 13:00:54;;;;;;;8.83;5.40;;;;;;;;;;5052278;28;20427;-67
2021/10/11 13:03:20;;;;;;;8.10;6.20;;;;;;;;;;5043469;28;20412;-65
2021/10/11 13:05:46;;;;;;;8.63;6.17;;;;;;;;;;5053350;28;20766;-66
2021/10/11 13:08:12;;;;;;;10.70;5.50;;;;;;;;;;5053656;28;20471;-66
2021/10/11 13:10:38;;;;;;;11.53;6.33;;;;;;;;;;5051365;28;20684;-66
2021/10/11 13:13:05;;;;;;;9.47;6.10;;;;;;;;;;5051293;28;20958;-66
2021/10/11 13:15:31;;;;;;;9.00;5.90;;;;;;;;;;5053058;28;20821;-66
2021/10/11 13:17:58;;;;;;;8.40;5.43;;;;;;;;;;5053656;28;20446;-66
2021/10/11 13:20:25;;;;;;;8.70;5.73;;;;;;;;;;5050744;28;20437;-66
2021/10/11 13:22:51;;;;;;;8.63;4.70;;;;;;;;;;5052515;28;20508;-66
2021/10/11 13:25:17;;;;;;;15.17;6.67;;;;;;;;;;5050529;28;20421;-66
2021/10/11 13:27:43;;;;;;;10.73;5.40;;;;;;;;;;5052444;28;21256;-67
2021/10/11 14:27:48;;;;;;;10.27;6.43;;;;;;;;;;5050580;28;20416;-65
2021/10/11 14:33:23;;;;;;;6.57;5.10;;;;;;;;;;5057907;28;20452;-65
2021/10/11 15:55:58;;;;;;;8.27;6.50;;;;;;;;;;5055768;28;20393;-68
2021/10/11 15:58:29;;;;;;;10.33;6.80;;;;;;;;;;5059833;28;20416;-69
2021/10/11 16:06:03;;;;;;;10.70;6.73;;;;;;;;;;5051745;28;20500;-69
2021/10/11 16:08:29;;;;;;;9.07;6.70;;;;;;;;;;5055149;28;20488;-68
2021/10/11 16:10:55;;;;;;;14.70;6.47;;;;;;;;;;5058232;28;20462;-69
2021/10/11 16:13:22;;;;;;;9.17;6.47;;;;;;;;;;5053272;28;20551;-68
2021/10/11 16:15:48;;;;;;;11.97;6.60;;;;;;;;;;5053883;28;20791;-68
2021/10/11 16:18:15;;;;;;;8.10;6.10;;;;;;;;;;5054717;28;20886;-68
2021/10/11 16:20:41;;;;;;;7.70;6.00;;;;;;;;;;5054743;28;20412;-65
2021/10/11 16:23:08;;;;;;;8.82;6.30;;;;;;;;;;5035059;28;20427;-66
2021/10/11 16:25:34;;;;;;;8.03;6.47;;;;;;;;;;5058553;28;20258;-70
2021/10/11 16:28:01;;;;;;;10.13;6.53;;;;;;;;;;5045545;28;20428;-68
2021/10/11 16:30:27;;;;;;;8.77;6.10;;;;;;;;;;5053156;28;20226;-66
2021/10/11 16:32:53;;;;;;;9.70;6.80;;;;;;;;;;5057137;28;20932;-66
2021/10/11 16:35:19;;;;;;;7.87;6.13;;;;;;;;;;5053141;28;20186;-66
2021/10/11 16:37:45;;;;;;;8.70;7.07;;;;;;;;;;5053223;28;21173;-68
2021/10/11 16:40:11;;;;;;;11.63;6.47;;;;;;;;;;5057790;28;20938;-69
2021/10/11 16:42:37;;;;;;;15.60;7.07;;;;;;;;;;5053909;28;20440;-67
2021/10/11 16:45:03;;;;;;;13.87;6.73;;;;;;;;;;5053017;28;20446;-65
2021/10/11 16:47:29;;;;;;;9.60;6.73;;;;;;;;;;5035386;28;20424;-64
2021/10/11 16:49:55;;;;;;;10.80;7.33;;;;;;;;;;5058222;28;20460;-69
2021/10/11 16:52:23;;;;;;;7.10;5.60;;;;;;;;;;5051352;28;20453;-67